Time;durP1;ratioP1;P1;durP2;ratioP2;P2;SDS_P1;SDS_P2;PMS_P1;PMS_P2;Temp;Humidity;BMP_temperature;BMP_pressure;BME280_temperature;BME280_humidity;BME280_pressure;Samples;Min_cycle;Max_cycle;Signal;HPM_P1;HPM_P2
2023/01/31 00:01:32;;;;;;;1.75;1.30;;;11.70;61.70;;;;;;5004151;28;20169;-75
2023/01/31 00:04:00;;;;;;;1.40;1.30;;;11.70;61.60;;;;;;5001624;28;20049;-76
2023/01/31 00:06:40;;;;;;;1.67;1.25;;;11.70;61.60;;;;;;5004064;28;20729;-74
2023/01/31 00:09:07;;;;;;;1.55;1.20;;;11.70;61.60;;;;;;5001283;28;20029;-74
2023/01/31 00:11:34;;;;;;;2.28;1.80;;;11.70;61.50;;;;;;5002379;28;20026;-75
2023/01/31 00:14:03;;;;;;;1.63;1.52;;;11.70;61.50;;;;;;5002169;28;20038;-75
2023/01/31 00:16:29;;;;;;;2.35;1.33;;;11.70;61.50;;;;;;5001631;28;20148;-74
2023/01/31 00:18:55;;;;;;;1.75;1.30;;;11.70;61.60;;;;;;5002602;28;20579;-75
2023/01/31 00:21:27;;;;;;;1.75;1.45;;;11.70;61.60;;;;;;5000306;28;20673;-74
2023/01/31 00:23:54;;;;;;;1.85;1.50;;;11.70;61.50;;;;;;5016283;28;20116;-75
2023/01/31 00:26:29;;;;;;;1.92;1.45;;;11.70;61.50;;;;;;5000511;28;20044;-76
2023/01/31 00:28:56;;;;;;;1.20;1.10;;;11.70;61.50;;;;;;4984976;28;20375;-75
2023/01/31 00:31:24;;;;;;;2.65;1.60;;;11.70;62.10;;;;;;5001303;28;20033;-75
2023/01/31 00:33:52;;;;;;;2.13;1.63;;;11.70;61.30;;;;;;4983595;28;20077;-75
2023/01/31 00:36:21;;;;;;;1.77;1.35;;;11.70;61.30;;;;;;5000116;28;20042;-75
2023/01/31 00:38:52;;;;;;;1.55;1.40;;;11.70;61.30;;;;;;4987928;28;20030;-75
2023/01/31 00:41:20;;;;;;;1.75;1.40;;;11.70;61.20;;;;;;4984066;28;20133;-75
2023/01/31 00:43:46;;;;;;;1.75;1.38;;;11.70;61.30;;;;;;5003696;28;20065;-74
2023/01/31 00:46:12;;;;;;;2.25;1.58;;;11.70;61.30;;;;;;4998189;28;20038;-76
2023/01/31 00:48:39;;;;;;;2.40;1.70;;;11.70;61.30;;;;;;5017330;28;20034;-75
2023/01/31 00:51:05;;;;;;;1.50;1.33;;;11.70;61.20;;;;;;5001337;28;20663;-75
2023/01/31 00:53:31;;;;;;;1.75;1.58;;;11.70;61.20;;;;;;5000408;28;20076;-75
2023/01/31 00:56:06;;;;;;;2.50;1.73;;;11.70;61.10;;;;;;4999373;28;20393;-76
2023/01/31 00:58:34;;;;;;;2.10;1.45;;;11.70;61.10;;;;;;5016814;28;20125;-75
2023/01/31 01:01:15;;;;;;;1.45;1.33;;;11.70;61.10;;;;;;5016453;28;20456;-75
2023/01/31 01:03:44;;;;;;;2.13;1.58;;;11.70;61.10;;;;;;5016161;28;20030;-75
2023/01/31 01:06:11;;;;;;;1.92;1.70;;;11.70;61.10;;;;;;4998066;28;20065;-75
2023/01/31 01:08:38;;;;;;;3.05;1.70;;;11.70;61.00;;;;;;5003756;28;20081;-76
2023/01/31 01:11:16;;;;;;;2.55;1.70;;;11.70;61.10;;;;;;4967608;28;20457;-75
2023/01/31 01:13:43;;;;;;;4.05;1.30;;;11.70;61.00;;;;;;4999363;28;20486;-76
2023/01/31 01:16:13;;;;;;;3.08;1.70;;;11.70;61.10;;;;;;4997381;28;21014;-75
2023/01/31 01:18:40;;;;;;;1.73;1.48;;;11.70;61.00;;;;;;5001088;28;20456;-76
2023/01/31 01:21:39;;;;;;;1.88;1.70;;;11.70;60.90;;;;;;4987247;28;20034;-76
2023/01/31 01:24:13;;;;;;;1.88;1.60;;;11.70;60.90;;;;;;4997748;28;20515;-76
2023/01/31 01:26:39;;;;;;;2.05;1.60;;;11.70;60.90;;;;;;5002875;28;20159;-76
2023/01/31 01:29:05;;;;;;;1.75;1.30;;;11.70;60.80;;;;;;5000556;28;20149;-75
2023/01/31 01:31:31;;;;;;;1.58;1.48;;;11.70;60.90;;;;;;5005421;28;20047;-76
2023/01/31 01:33:59;;;;;;;1.63;1.33;;;11.70;60.90;;;;;;4991092;28;20042;-77
2023/01/31 01:36:25;;;;;;;2.13;1.60;;;11.70;60.90;;;;;;5000295;28;20596;-76
2023/01/31 01:38:52;;;;;;;2.35;1.70;;;11.70;61.00;;;;;;5000485;28;20038;-76
2023/01/31 01:41:19;;;;;;;1.98;1.77;;;11.70;61.00;;;;;;4997688;28;20081;-76
2023/01/31 01:43:46;;;;;;;2.45;1.90;;;11.70;60.90;;;;;;5003011;28;20111;-75
2023/01/31 01:46:17;;;;;;;2.85;1.77;;;11.70;60.90;;;;;;5002724;28;20129;-75
2023/01/31 01:48:47;;;;;;;1.85;1.58;;;11.70;60.90;;;;;;5015686;28;20037;-76
2023/01/31 01:51:14;;;;;;;2.33;1.73;;;11.70;60.90;;;;;;5013329;28;20062;-76
2023/01/31 01:53:43;;;;;;;2.33;1.60;;;11.70;60.70;;;;;;4986627;28;20108;-76
2023/01/31 01:56:18;;;;;;;2.15;1.95;;;11.70;60.70;;;;;;5002109;28;20050;-76
2023/01/31 01:58:52;;;;;;;1.92;1.70;;;11.70;60.80;;;;;;5000542;28;20104;-75
2023/01/31 02:01:21;;;;;;;2.90;1.90;;;11.70;60.60;;;;;;5014836;28;20041;-75
2023/01/31 02:03:50;;;;;;;1.98;1.65;;;11.70;60.50;;;;;;5000904;28;20077;-75
2023/01/31 02:06:16;;;;;;;1.85;1.63;;;11.70;60.50;;;;;;5014159;28;20026;-75
2023/01/31 02:08:43;;;;;;;3.63;2.10;;;11.70;60.50;;;;;;5000325;28;20428;-76
2023/01/31 02:11:29;;;;;;;3.45;2.10;;;11.70;60.50;;;;;;4999084;28;20042;-75
2023/01/31 02:14:03;;;;;;;2.03;1.67;;;11.70;60.50;;;;;;5000250;28;20681;-76
2023/01/31 02:16:31;;;;;;;2.17;1.90;;;11.70;60.40;;;;;;4996930;28;20038;-75
2023/01/31 02:18:57;;;;;;;1.92;1.67;;;11.70;60.30;;;;;;5000619;28;20039;-75
2023/01/31 02:21:40;;;;;;;1.83;1.67;;;11.70;60.40;;;;;;5014966;28;20493;-76
2023/01/31 02:24:36;;;;;;;2.70;1.95;;;11.70;60.40;;;;;;5001034;28;20046;-75
2023/01/31 02:27:24;;;;;;;2.20;1.92;;;11.70;60.40;;;;;;5015713;28;20053;-77
2023/01/31 02:30:18;;;;;;;1.92;1.70;;;11.70;60.20;;;;;;5018046;28;20074;-77
2023/01/31 02:32:50;;;;;;;2.60;2.00;;;11.70;60.10;;;;;;5018928;28;20072;-77
2023/01/31 02:35:26;;;;;;;2.67;2.00;;;11.70;60.10;;;;;;5018067;28;20429;-76
2023/01/31 02:37:58;;;;;;;3.47;2.10;;;11.70;60.10;;;;;;5017892;28;20132;-77
2023/01/31 02:40:47;;;;;;;1.88;1.70;;;11.70;60.10;;;;;;5018673;28;20042;-76
2023/01/31 02:43:22;;;;;;;2.33;1.90;;;11.70;60.10;;;;;;5021554;28;20050;-76
2023/01/31 02:46:11;;;;;;;2.13;1.90;;;11.70;60.30;;;;;;4983737;28;20589;-77
2023/01/31 02:48:40;;;;;;;2.58;2.20;;;11.70;60.20;;;;;;4999419;28;20494;-76
2023/01/31 02:51:21;;;;;;;2.45;2.00;;;11.70;60.10;;;;;;4983989;28;20043;-77
2023/01/31 02:54:00;;;;;;;2.72;2.00;;;11.70;60.10;;;;;;5007324;28;20058;-76
2023/01/31 02:56:30;;;;;;;3.03;2.08;;;11.70;60.10;;;;;;4985338;28;20835;-76
2023/01/31 02:59:21;;;;;;;2.15;1.80;;;11.70;60.10;;;;;;4989917;28;20065;-76
2023/01/31 03:01:57;;;;;;;2.50;1.85;;;11.70;60.00;;;;;;5002134;28;20133;-76
2023/01/31 03:04:23;;;;;;;3.78;1.77;;;11.70;60.00;;;;;;5017821;28;20084;-77
2023/01/31 03:07:00;;;;;;;2.47;2.10;;;11.70;60.00;;;;;;5001643;28;20176;-77
2023/01/31 03:09:51;;;;;;;2.28;1.90;;;11.70;59.90;;;;;;5005875;28;20030;-77
2023/01/31 03:12:29;;;;;;;2.33;1.88;;;11.70;60.00;;;;;;5003765;28;20033;-78
2023/01/31 03:15:23;;;;;;;2.83;2.20;;;11.70;60.00;;;;;;4990344;28;20088;-78
2023/01/31 03:18:04;;;;;;;2.72;2.10;;;11.70;60.00;;;;;;4989784;28;20045;-78
2023/01/31 03:20:43;;;;;;;2.40;2.20;;;11.70;60.00;;;;;;4990464;28;20073;-76
2023/01/31 03:23:20;;;;;;;3.13;2.45;;;11.70;59.90;;;;;;5001232;28;20529;-76
2023/01/31 03:25:48;;;;;;;3.50;2.22;;;11.60;59.80;;;;;;4999717;28;20092;-78
2023/01/31 03:28:19;;;;;;;3.25;2.45;;;11.70;59.80;;;;;;4996756;28;20173;-76
2023/01/31 03:31:02;;;;;;;3.00;2.25;;;11.70;59.80;;;;;;5004187;28;20958;-79
2023/01/31 03:33:39;;;;;;;2.35;2.15;;;11.70;59.80;;;;;;5018767;28;20084;-77
2023/01/31 03:36:44;;;;;;;2.60;2.37;;;11.70;59.80;;;;;;5019763;28;20127;-78
2023/01/31 03:39:51;;;;;;;3.13;2.33;;;11.70;59.80;;;;;;4997712;28;20042;-78
2023/01/31 03:42:39;;;;;;;2.92;2.00;;;11.70;59.80;;;;;;5005326;28;20045;-77
2023/01/31 03:45:19;;;;;;;2.28;2.08;;;11.70;59.70;;;;;;5000784;28;20152;-77
2023/01/31 03:47:48;;;;;;;3.08;2.20;;;11.70;59.70;;;;;;5004864;28;20026;-79
2023/01/31 03:50:17;;;;;;;3.05;2.35;;;11.70;59.80;;;;;;4999721;28;20041;-78
2023/01/31 03:52:57;;;;;;;2.45;2.25;;;11.70;59.70;;;;;;5001069;28;20732;-79
2023/01/31 03:55:35;;;;;;;3.75;2.55;;;11.70;59.70;;;;;;5000594;28;20402;-80
2023/01/31 03:58:04;;;;;;;2.85;2.38;;;11.70;59.70;;;;;;4989686;28;20034;-79
2023/01/31 04:00:34;;;;;;;3.92;2.30;;;11.70;59.70;;;;;;5005189;28;20037;-78
2023/01/31 04:03:10;;;;;;;3.20;2.42;;;11.70;59.70;;;;;;5001039;28;20549;-78
2023/01/31 04:05:37;;;;;;;3.65;2.08;;;11.70;59.70;;;;;;5003020;28;20050;-77
2023/01/31 04:08:03;;;;;;;5.38;2.38;;;11.70;59.60;;;;;;4990863;28;20034;-79
2023/01/31 04:10:32;;;;;;;3.63;2.63;;;11.70;59.70;;;;;;4987307;28;20046;-78
2023/01/31 04:12:58;;;;;;;3.22;2.50;;;11.70;59.60;;;;;;5017765;28;20387;-79
2023/01/31 04:15:24;;;;;;;3.72;2.42;;;11.70;59.50;;;;;;4999203;28;20072;-75
2023/01/31 04:17:50;;;;;;;3.67;2.45;;;11.70;59.50;;;;;;5000917;28;20066;-75
2023/01/31 04:20:16;;;;;;;3.92;2.47;;;11.70;59.50;;;;;;5000400;28;20687;-78
2023/01/31 04:22:42;;;;;;;2.50;2.25;;;11.70;59.50;;;;;;5000295;28;20038;-78
2023/01/31 04:25:08;;;;;;;3.10;2.38;;;11.70;59.50;;;;;;5001693;28;20088;-79
2023/01/31 04:27:34;;;;;;;3.45;2.63;;;11.70;59.40;;;;;;5003653;28;20068;-78
2023/01/31 04:30:00;;;;;;;3.00;2.20;;;11.70;59.50;;;;;;5001560;28;20121;-79
2023/01/31 04:32:27;;;;;;;4.10;2.50;;;11.70;59.50;;;;;;4999269;28;20042;-76
2023/01/31 04:34:53;;;;;;;5.50;2.47;;;11.70;59.50;;;;;;5002425;28;20038;-82
2023/01/31 04:37:19;;;;;;;4.35;2.83;;;11.70;59.50;;;;;;4983757;28;20441;-84
2023/01/31 04:39:45;;;;;;;3.47;2.35;;;11.70;59.60;;;;;;5002454;28;20034;-77
2023/01/31 04:42:10;;;;;;;3.35;2.50;;;11.70;60.00;;;;;;5005353;28;20046;-76
2023/01/31 04:44:36;;;;;;;3.50;2.90;;;11.70;59.70;;;;;;5005556;28;20616;-78
2023/01/31 04:47:02;;;;;;;3.38;2.55;;;11.70;59.90;;;;;;5009592;28;20124;-75
2023/01/31 04:49:28;;;;;;;5.25;2.80;;;11.70;60.10;;;;;;5008091;28;20430;-80
2023/01/31 04:51:54;;;;;;;4.05;2.90;;;11.70;60.50;;;;;;5008000;28;20029;-80
2023/01/31 04:54:21;;;;;;;4.50;2.55;;;11.70;60.70;;;;;;5005651;28;20516;-84
2023/01/31 04:56:46;;;;;;;5.28;3.10;;;11.70;61.00;;;;;;5005196;28;20042;-81
2023/01/31 04:59:12;;;;;;;4.85;2.67;;;11.70;61.30;;;;;;5004490;28;20045;-84
2023/01/31 05:01:40;;;;;;;3.83;2.90;;;11.70;61.40;;;;;;4997951;28;20516;-84
2023/01/31 05:04:07;;;;;;;4.75;2.80;;;11.80;61.60;;;;;;5002464;28;21366;-83
2023/01/31 05:06:33;;;;;;;4.40;2.47;;;11.80;61.70;;;;;;5001297;28;20088;-84
2023/01/31 05:09:00;;;;;;;3.42;2.70;;;11.70;62.50;;;;;;5002281;28;20034;-84
2023/01/31 05:11:27;;;;;;;4.03;2.83;;;11.70;61.90;;;;;;5002745;28;20044;-82
2023/01/31 05:13:53;;;;;;;3.85;2.72;;;11.80;62.00;;;;;;4998571;28;20033;-84
2023/01/31 05:16:19;;;;;;;3.42;2.95;;;11.80;61.90;;;;;;4999202;28;20033;-84
2023/01/31 05:18:45;;;;;;;4.40;3.40;;;11.70;61.80;;;;;;4989934;28;20032;-84
2023/01/31 05:21:11;;;;;;;5.88;2.83;;;11.80;61.80;;;;;;5017605;28;20053;-84
2023/01/31 05:23:37;;;;;;;4.85;3.00;;;11.80;61.80;;;;;;5001829;28;20076;-85
2023/01/31 05:26:04;;;;;;;7.57;3.13;;;11.80;61.70;;;;;;5003500;28;20038;-84
2023/01/31 05:28:30;;;;;;;3.45;2.60;;;11.80;61.60;;;;;;5000042;28;20061;-84
2023/01/31 05:31:05;;;;;;;6.97;3.35;;;11.80;61.50;;;;;;5001844;28;20065;-85
2023/01/31 05:33:32;;;;;;;4.00;2.45;;;11.80;61.40;;;;;;5003963;28;20040;-84
2023/01/31 05:35:58;;;;;;;4.72;2.80;;;11.80;61.20;;;;;;5003457;28;20386;-84
2023/01/31 05:38:25;;;;;;;3.67;2.97;;;11.80;61.20;;;;;;5002298;28;20038;-84
2023/01/31 05:40:51;;;;;;;3.55;3.08;;;11.80;61.30;;;;;;4999487;28;20037;-84
2023/01/31 05:43:17;;;;;;;3.70;2.70;;;11.80;61.20;;;;;;5002466;28;20386;-86
2023/01/31 05:45:43;;;;;;;4.90;3.10;;;11.80;61.10;;;;;;5004087;28;20072;-84
2023/01/31 05:48:09;;;;;;;3.75;2.83;;;11.80;61.00;;;;;;5001429;28;20031;-83
2023/01/31 05:50:35;;;;;;;3.95;3.00;;;11.80;60.90;;;;;;4987622;28;20421;-86
2023/01/31 05:53:08;;;;;;;4.60;3.05;;;11.80;60.90;;;;;;5000272;28;20081;-84
2023/01/31 05:55:34;;;;;;;4.82;3.20;;;11.80;60.80;;;;;;4967266;28;20034;-85
2023/01/31 05:58:00;;;;;;;4.13;2.80;;;11.80;60.70;;;;;;5003068;28;20366;-81
2023/01/31 06:00:26;;;;;;;6.28;3.90;;;11.80;60.70;;;;;;4986366;28;20045;-79
2023/01/31 06:02:55;;;;;;;6.18;4.20;;;11.80;58.10;;;;;;4998281;28;20037;-78
2023/01/31 06:05:21;;;;;;;7.53;4.57;;;11.60;56.00;;;;;;5006516;28;20045;-85
2023/01/31 06:07:47;;;;;;;6.13;4.55;;;11.30;54.90;;;;;;4989341;28;20502;-81
2023/01/31 06:10:14;;;;;;;5.13;4.30;;;11.10;54.80;;;;;;4988470;28;20559;-78
2023/01/31 06:12:40;;;;;;;5.90;4.57;;;10.90;54.90;;;;;;5004977;28;20467;-78
2023/01/31 06:15:06;;;;;;;5.70;4.10;;;10.70;54.70;;;;;;5005517;28;20042;-78
2023/01/31 06:17:32;;;;;;;8.95;4.50;;;10.50;55.00;;;;;;5019122;28;20031;-78
2023/01/31 06:19:58;;;;;;;6.28;4.78;;;10.40;55.20;;;;;;5006867;28;20412;-78
2023/01/31 06:22:24;;;;;;;5.78;4.55;;;10.20;55.40;;;;;;5003573;28;20030;-77
2023/01/31 06:24:50;;;;;;;7.40;5.38;;;10.00;55.70;;;;;;5006145;28;20038;-78
2023/01/31 06:27:16;;;;;;;6.20;4.55;;;9.90;55.70;;;;;;5003739;28;20413;-78
2023/01/31 06:29:42;;;;;;;9.35;5.63;;;9.80;55.80;;;;;;4990011;28;20045;-77
2023/01/31 06:32:08;;;;;;;11.32;7.07;;;9.70;56.00;;;;;;5018763;28;20092;-78
2023/01/31 06:34:34;;;;;;;8.73;5.93;;;9.60;56.40;;;;;;5002644;28;20119;-78
2023/01/31 06:37:00;;;;;;;7.70;5.35;;;9.50;56.60;;;;;;5004184;28;20108;-78
2023/01/31 06:39:26;;;;;;;7.97;5.47;;;9.50;56.90;;;;;;5003832;28;20034;-77
2023/01/31 06:41:52;;;;;;;6.13;4.75;;;9.40;56.80;;;;;;5020756;28;20563;-77
2023/01/31 06:44:18;;;;;;;8.32;5.05;;;9.30;56.90;;;;;;5005727;28;20129;-76
2023/01/31 06:46:44;;;;;;;8.25;5.47;;;9.20;57.10;;;;;;5005237;28;20034;-77
2023/01/31 06:49:09;;;;;;;7.10;5.05;;;9.10;57.30;;;;;;5009180;28;20021;-76
2023/01/31 06:51:35;;;;;;;6.38;4.50;;;9.10;57.70;;;;;;5008406;28;20180;-75
2023/01/31 06:54:01;;;;;;;8.88;5.22;;;9.10;58.50;;;;;;5006251;28;20532;-76
2023/01/31 06:56:27;;;;;;;8.40;5.47;;;8.90;58.00;;;;;;5009959;28;20305;-77
2023/01/31 06:58:53;;;;;;;7.78;5.72;;;8.80;58.00;;;;;;5000157;28;20038;-80
2023/01/31 07:01:21;;;;;;;7.13;5.10;;;8.80;58.10;;;;;;5013689;28;20540;-77
2023/01/31 07:03:47;;;;;;;5.82;4.88;;;8.80;58.30;;;;;;5012428;28;20069;-77
2023/01/31 07:06:13;;;;;;;7.95;5.20;;;8.60;58.60;;;;;;5012279;28;20034;-77
2023/01/31 07:08:39;;;;;;;7.55;5.53;;;8.60;59.10;;;;;;5006865;28;20030;-77
2023/01/31 07:11:05;;;;;;;10.70;5.50;;;8.60;59.50;;;;;;5001394;28;20038;-77
2023/01/31 07:13:32;;;;;;;6.13;5.00;;;8.60;59.50;;;;;;5003810;28;20030;-77
2023/01/31 07:15:58;;;;;;;8.63;5.63;;;8.50;59.30;;;;;;5002747;28;20370;-77
2023/01/31 07:18:24;;;;;;;7.03;5.50;;;8.50;59.30;;;;;;5006786;28;20045;-76
2023/01/31 07:20:50;;;;;;;6.20;4.47;;;8.40;59.30;;;;;;5001369;28;20038;-76
2023/01/31 07:23:16;;;;;;;6.70;5.28;;;8.40;59.20;;;;;;5011836;28;20095;-76
2023/01/31 07:25:42;;;;;;;8.02;5.22;;;8.30;59.20;;;;;;5009331;28;20038;-75
2023/01/31 07:28:09;;;;;;;8.18;5.38;;;8.20;59.20;;;;;;5009526;28;20256;-74
2023/01/31 07:30:35;;;;;;;7.82;5.30;;;8.20;59.30;;;;;;5010327;28;20034;-76
2023/01/31 07:33:01;;;;;;;7.45;5.30;;;8.20;59.30;;;;;;5010279;28;20065;-76
2023/01/31 07:35:28;;;;;;;6.72;5.13;;;8.20;59.50;;;;;;4997604;28;20041;-76
2023/01/31 07:37:54;;;;;;;8.02;5.75;;;8.20;59.60;;;;;;4998412;28;20045;-77
2023/01/31 07:40:21;;;;;;;7.03;5.22;;;8.10;59.60;;;;;;4999227;28;20030;-77
2023/01/31 07:42:47;;;;;;;6.60;4.57;;;8.10;59.80;;;;;;5000801;28;20061;-76
2023/01/31 07:45:14;;;;;;;9.85;5.45;;;8.10;59.70;;;;;;4997574;28;20046;-76
2023/01/31 07:47:41;;;;;;;7.13;4.80;;;8.00;59.70;;;;;;5000685;28;20527;-76
2023/01/31 07:50:08;;;;;;;7.55;5.18;;;8.00;59.70;;;;;;5001006;28;20041;-76
2023/01/31 07:52:34;;;;;;;8.65;5.80;;;8.00;59.90;;;;;;5002330;28;20038;-77
2023/01/31 07:55:00;;;;;;;7.95;5.53;;;8.00;59.90;;;;;;4971877;28;20088;-76
2023/01/31 07:57:29;;;;;;;9.93;6.10;;;7.90;60.00;;;;;;4999396;28;20607;-76
2023/01/31 07:59:55;;;;;;;7.07;5.50;;;7.90;59.90;;;;;;5001725;28;20061;-77
2023/01/31 08:05:07;;;;;;;8.23;5.40;;;7.90;60.00;;;;;;4999860;28;20130;-77
2023/01/31 08:07:33;;;;;;;7.38;5.70;;;7.90;59.80;;;;;;4987385;28;20069;-76
2023/01/31 08:09:59;;;;;;;8.52;5.45;;;7.90;60.20;;;;;;5001268;28;20128;-77
2023/01/31 08:12:25;;;;;;;7.38;5.63;;;7.90;60.30;;;;;;4999824;28;20430;-76
2023/01/31 08:14:51;;;;;;;7.90;5.10;;;7.80;60.20;;;;;;5015984;28;20527;-76
2023/01/31 08:17:17;;;;;;;8.10;5.22;;;7.80;60.40;;;;;;4997117;28;20049;-78
2023/01/31 08:19:43;;;;;;;7.88;5.65;;;7.80;60.40;;;;;;5002275;28;20048;-76
2023/01/31 08:22:09;;;;;;;7.15;5.40;;;7.80;60.40;;;;;;5000333;28;20034;-77
2023/01/31 08:24:35;;;;;;;6.63;5.30;;;7.80;60.50;;;;;;5012929;28;20438;-77
2023/01/31 08:27:01;;;;;;;7.28;5.63;;;7.70;60.40;;;;;;4999425;28;20076;-76
2023/01/31 08:29:27;;;;;;;7.10;5.32;;;7.70;60.30;;;;;;5015413;28;20030;-76
2023/01/31 08:31:54;;;;;;;8.40;5.82;;;7.70;60.40;;;;;;4999432;28;20508;-77
2023/01/31 08:34:20;;;;;;;7.72;6.05;;;7.70;60.50;;;;;;4998307;28;20041;-76
2023/01/31 08:36:46;;;;;;;8.38;5.32;;;7.60;60.60;;;;;;4999257;28;20026;-77
2023/01/31 08:39:12;;;;;;;7.65;5.30;;;7.60;60.60;;;;;;4986997;28;20095;-76
2023/01/31 08:41:38;;;;;;;10.20;6.18;;;7.70;60.80;;;;;;4998808;28;20041;-77
2023/01/31 08:44:05;;;;;;;8.57;5.50;;;7.60;60.70;;;;;;4996696;28;20077;-76
2023/01/31 08:46:34;;;;;;;9.15;5.97;;;7.60;60.80;;;;;;4998133;28;20033;-77
2023/01/31 08:49:01;;;;;;;8.15;6.05;;;7.60;60.80;;;;;;5000239;28;20465;-77
2023/01/31 08:51:27;;;;;;;7.97;5.72;;;7.60;60.90;;;;;;4986589;28;20393;-76
2023/01/31 08:53:53;;;;;;;7.00;5.30;;;7.60;60.90;;;;;;4998152;28;20477;-75
2023/01/31 08:56:24;;;;;;;7.70;5.07;;;7.50;61.00;;;;;;4997172;28;20034;-75
2023/01/31 08:58:52;;;;;;;8.98;5.57;;;7.60;61.10;;;;;;5000166;28;20042;-76
2023/01/31 09:01:19;;;;;;;9.40;6.10;;;7.60;61.00;;;;;;5013842;28;20080;-78
2023/01/31 09:03:47;;;;;;;7.90;5.95;;;7.60;61.00;;;;;;4998937;28;20417;-78
2023/01/31 09:06:15;;;;;;;6.63;4.78;;;7.60;61.00;;;;;;4997749;28;20126;-76
2023/01/31 09:08:42;;;;;;;7.10;5.15;;;7.60;61.10;;;;;;4998993;28;20061;-76
2023/01/31 09:11:08;;;;;;;9.07;5.18;;;7.60;61.00;;;;;;4999562;28;20188;-76
2023/01/31 09:13:34;;;;;;;7.72;5.80;;;7.60;61.00;;;;;;4999868;28;20049;-76
2023/01/31 09:16:06;;;;;;;8.68;6.28;;;7.60;61.00;;;;;;5000039;28;20088;-76
2023/01/31 09:18:34;;;;;;;10.02;7.00;;;7.60;61.00;;;;;;4998181;28;20045;-76
2023/01/31 09:21:08;;;;;;;9.93;6.15;;;7.60;61.20;;;;;;4998747;28;20046;-76
2023/01/31 09:23:35;;;;;;;9.45;6.32;;;7.60;61.30;;;;;;5000270;28;20042;-76
2023/01/31 09:26:01;;;;;;;10.13;6.20;;;7.70;61.20;;;;;;4997376;28;20521;-76
2023/01/31 09:28:27;;;;;;;10.18;6.47;;;7.70;61.20;;;;;;4997632;28;20038;-76
2023/01/31 09:30:53;;;;;;;8.93;6.18;;;7.70;61.10;;;;;;5002029;28;20031;-78
2023/01/31 09:33:21;;;;;;;8.65;6.03;;;7.60;61.10;;;;;;4997244;28;20064;-78
2023/01/31 09:35:57;;;;;;;10.05;5.78;;;7.70;61.30;;;;;;4997846;28;20038;-77
2023/01/31 09:38:24;;;;;;;7.78;5.20;;;7.70;61.20;;;;;;4999357;28;20066;-77
2023/01/31 09:40:50;;;;;;;7.60;5.63;;;7.70;61.30;;;;;;4996036;28;20045;-78
2023/01/31 09:43:18;;;;;;;8.55;6.38;;;7.70;61.10;;;;;;5000712;28;20049;-76
2023/01/31 09:45:48;;;;;;;9.02;5.95;;;7.70;61.00;;;;;;4998935;28;20624;-76
2023/01/31 09:48:21;;;;;;;8.35;5.88;;;7.70;61.20;;;;;;4997310;28;20096;-78
2023/01/31 09:50:50;;;;;;;9.38;5.72;;;7.70;61.20;;;;;;4999643;28;20141;-77
2023/01/31 09:53:21;;;;;;;9.05;6.15;;;7.80;61.20;;;;;;4994746;28;20538;-77
2023/01/31 09:56:08;;;;;;;8.50;5.63;;;7.80;60.90;;;;;;4983630;28;20046;-77
2023/01/31 09:59:00;;;;;;;9.77;6.13;;;7.80;61.20;;;;;;4998914;28;20049;-77
2023/01/31 10:01:44;;;;;;;8.30;5.20;;;7.80;61.30;;;;;;4998224;28;20077;-78
2023/01/31 10:04:36;;;;;;;11.15;6.10;;;7.80;61.20;;;;;;5000690;28;20038;-77
2023/01/31 10:07:09;;;;;;;10.60;6.15;;;7.80;61.10;;;;;;4996345;28;20120;-77
2023/01/31 10:10:06;;;;;;;9.90;5.60;;;7.80;61.20;;;;;;4985920;28;20642;-78
2023/01/31 10:12:38;;;;;;;8.60;5.70;;;7.80;61.10;;;;;;4936541;28;20035;-79
2023/01/31 10:15:41;;;;;;;10.40;7.03;;;7.80;61.20;;;;;;4952989;28;20039;-80
2023/01/31 10:18:15;;;;;;;7.45;5.28;;;7.80;61.10;;;;;;4938038;28;20050;-78
2023/01/31 10:20:51;;;;;;;7.97;5.57;;;7.80;61.00;;;;;;4953570;28;20070;-78
2023/01/31 10:24:02;;;;;;;10.18;6.07;;;7.80;61.00;;;;;;4953720;28;20134;-78
2023/01/31 10:26:30;;;;;;;9.20;6.70;;;7.90;61.00;;;;;;4876013;29;20500;-78
2023/01/31 10:29:03;;;;;;;7.82;5.63;;;7.90;61.00;;;;;;4856607;29;20124;-76
2023/01/31 10:31:52;;;;;;;7.95;5.40;;;7.80;61.00;;;;;;4833673;29;20124;-78
2023/01/31 10:34:21;;;;;;;7.68;5.55;;;7.90;60.90;;;;;;4876680;29;20076;-77
2023/01/31 10:37:09;;;;;;;8.98;5.90;;;7.80;60.90;;;;;;4878003;29;20037;-77
2023/01/31 10:39:54;;;;;;;9.30;5.55;;;7.80;61.00;;;;;;4878080;29;20368;-76
2023/01/31 10:42:34;;;;;;;9.85;5.90;;;7.90;61.00;;;;;;4877704;29;20117;-78
2023/01/31 10:45:03;;;;;;;8.05;5.78;;;7.90;61.10;;;;;;4900044;29;20085;-77
2023/01/31 10:47:38;;;;;;;9.80;6.63;;;7.90;61.00;;;;;;4906693;29;20123;-77
2023/01/31 10:50:24;;;;;;;7.43;5.97;;;7.90;61.10;;;;;;4924444;29;20035;-75
2023/01/31 10:52:56;;;;;;;8.88;5.60;;;7.90;61.10;;;;;;4912710;29;20119;-78
2023/01/31 10:55:32;;;;;;;10.35;5.40;;;8.00;61.00;;;;;;4926985;29;20042;-77
2023/01/31 10:57:59;;;;;;;9.57;5.85;;;8.00;60.90;;;;;;4928936;29;20451;-77
2023/01/31 11:00:31;;;;;;;6.45;4.65;;;8.00;60.90;;;;;;4954790;28;20520;-76
2023/01/31 11:02:58;;;;;;;8.90;5.80;;;8.00;60.90;;;;;;4998237;28;20038;-78
2023/01/31 11:05:27;;;;;;;8.13;5.40;;;8.00;60.90;;;;;;5007978;28;20311;-78
2023/01/31 11:07:57;;;;;;;8.18;5.72;;;8.00;60.80;;;;;;5005650;28;20060;-77
2023/01/31 11:10:31;;;;;;;8.57;5.55;;;8.00;60.80;;;;;;5004355;28;20041;-78
2023/01/31 11:13:00;;;;;;;8.82;5.85;;;8.00;60.80;;;;;;5005920;28;20026;-78
2023/01/31 11:15:39;;;;;;;9.55;6.32;;;8.00;60.70;;;;;;5000998;28;20621;-77
2023/01/31 11:18:06;;;;;;;7.88;5.80;;;8.00;60.80;;;;;;4985127;28;20401;-78
2023/01/31 11:20:36;;;;;;;9.88;5.88;;;8.00;60.70;;;;;;5001043;28;20038;-76
2023/01/31 11:23:05;;;;;;;7.03;5.45;;;8.00;60.70;;;;;;4988792;28;20121;-77
2023/01/31 11:25:33;;;;;;;7.63;5.30;;;8.00;60.70;;;;;;5001045;28;20521;-78
2023/01/31 11:28:02;;;;;;;9.52;5.85;;;8.00;60.60;;;;;;5002705;28;20033;-78
2023/01/31 11:30:37;;;;;;;8.73;5.95;;;8.00;60.60;;;;;;5001251;28;20030;-78
2023/01/31 11:33:03;;;;;;;8.73;6.00;;;8.00;60.70;;;;;;4984158;28;20045;-78
2023/01/31 11:35:34;;;;;;;10.38;6.25;;;8.00;60.80;;;;;;5003670;28;20064;-78
2023/01/31 11:38:22;;;;;;;9.35;6.13;;;8.00;60.60;;;;;;5018798;28;20033;-78
2023/01/31 11:40:48;;;;;;;8.68;6.18;;;8.00;60.60;;;;;;5003377;28;20037;-78
2023/01/31 11:43:23;;;;;;;9.43;5.95;;;8.00;60.60;;;;;;4990599;28;20061;-78
2023/01/31 11:46:02;;;;;;;10.05;5.95;;;8.00;60.70;;;;;;5003886;28;20164;-78
2023/01/31 11:48:43;;;;;;;10.50;5.80;;;8.00;60.80;;;;;;5000939;28;20117;-78
2023/01/31 11:51:19;;;;;;;7.95;5.63;;;8.00;60.70;;;;;;5006016;28;20112;-79
2023/01/31 11:53:49;;;;;;;9.95;5.90;;;8.00;60.60;;;;;;4985777;28;20490;-79
2023/01/31 11:56:19;;;;;;;8.55;6.30;;;8.00;60.60;;;;;;5000862;28;20037;-79
2023/01/31 11:58:47;;;;;;;10.75;6.47;;;7.90;60.60;;;;;;5001855;28;20037;-77
2023/01/31 12:01:17;;;;;;;9.02;5.85;;;8.00;60.60;;;;;;5003776;28;20029;-77
2023/01/31 12:03:55;;;;;;;10.23;6.05;;;7.90;60.60;;;;;;5003240;28;21375;-77
2023/01/31 12:06:36;;;;;;;8.40;5.88;;;7.90;60.80;;;;;;5017537;28;20065;-78
2023/01/31 12:09:22;;;;;;;8.65;5.53;;;7.90;60.80;;;;;;5003339;28;20038;-78
2023/01/31 12:11:56;;;;;;;10.57;6.05;;;7.90;60.70;;;;;;5001534;28;20050;-78
2023/01/31 12:14:24;;;;;;;8.05;5.50;;;7.90;60.90;;;;;;5002184;28;20038;-78
2023/01/31 12:16:54;;;;;;;8.65;6.07;;;8.00;60.70;;;;;;5001872;28;20040;-77
2023/01/31 12:19:37;;;;;;;8.43;5.75;;;8.00;60.60;;;;;;5002498;28;20034;-79
2023/01/31 12:22:29;;;;;;;9.60;5.93;;;8.00;60.60;;;;;;5001585;28;20038;-78
2023/01/31 12:24:58;;;;;;;8.65;5.85;;;8.00;60.60;;;;;;5001897;28;20093;-78
2023/01/31 12:27:45;;;;;;;8.70;5.53;;;8.00;60.50;;;;;;5003576;28;20971;-79
2023/01/31 12:30:48;;;;;;;9.07;5.38;;;7.90;60.40;;;;;;5003384;28;20509;-77
2023/01/31 12:33:41;;;;;;;9.13;5.47;;;7.90;60.60;;;;;;5000564;28;20061;-77
2023/01/31 12:36:12;;;;;;;7.43;5.15;;;8.00;61.20;;;;;;5000126;28;20041;-77
2023/01/31 12:38:49;;;;;;;6.13;4.38;;;8.20;61.50;;;;;;5001076;28;20038;-76
2023/01/31 12:41:27;;;;;;;5.57;4.40;;;8.20;61.60;;;;;;5000671;28;20034;-76
2023/01/31 12:44:22;;;;;;;7.15;4.78;;;8.30;61.60;;;;;;5000279;28;20440;-76
2023/01/31 12:47:14;;;;;;;8.10;4.35;;;8.50;61.70;;;;;;5000969;28;20073;-75
2023/01/31 12:50:17;;;;;;;6.55;4.20;;;8.60;61.80;;;;;;5000460;28;20061;-76
2023/01/31 12:53:06;;;;;;;5.03;4.10;;;8.70;61.80;;;;;;5000390;28;20034;-76
2023/01/31 12:55:56;;;;;;;6.10;4.10;;;8.80;61.90;;;;;;5000188;28;20077;-76
2023/01/31 12:58:56;;;;;;;6.25;4.38;;;8.90;62.00;;;;;;4999905;28;20069;-78
2023/01/31 13:02:06;;;;;;;7.35;4.35;;;9.00;62.20;;;;;;4999633;28;20049;-74
2023/01/31 13:04:32;;;;;;;6.68;4.70;;;9.10;62.10;;;;;;5003355;28;20056;-74
2023/01/31 13:07:18;;;;;;;7.45;4.13;;;9.10;62.00;;;;;;5004182;28;20038;-75
2023/01/31 13:09:47;;;;;;;5.38;4.00;;;9.20;62.00;;;;;;5003262;28;20045;-74
2023/01/31 13:12:18;;;;;;;5.07;3.78;;;9.30;62.10;;;;;;5002892;28;20029;-74
2023/01/31 13:14:57;;;;;;;6.43;4.50;;;9.30;62.10;;;;;;5003543;28;20138;-75
2023/01/31 13:17:27;;;;;;;7.63;4.03;;;9.40;62.10;;;;;;5003324;28;20609;-75